Tallinn, Eesti

01:08 EEST 26. Aprill 2017 (GMT +0300)
Ulemiste | | Change Station

Elev 128 ft 59.41 °N, 24.83 °E | Updated 18 minutes ago

Vihm
Vihm
34 °F
Feels Like 26 °F
Põhja
9
Tuul Muutliku suunaga Tuul from Lääne

Täna
High -- | Low -- °F
--% Chance of Precip.
Eile
High -- | Low -- °F
Precip. -- tolli
Õhurõhk 29.44 tolli
Nähtavus 3.7 miili
Pilved Lauspilvisus 300 ft
Tuulekülm 26 °F
Kastepunkt 34 °F
Õhuniiskus 100%
Sademed 0.00 tolli
Lume paksus Not available.
5:33 AM 9:03 PM
Poolkuu (viimane veerand), 1% visible
METAR EETN 252150Z 28008KT 6000 OVC003 01/01 Q0997 TEMPO 3000 BR
Õhurõhk 29.44 tolli
Nähtavus 3.7 miili
Pilved Lauspilvisus 300 ft
Tuulekülm 26 °F
Kastepunkt 34 °F
Õhuniiskus 100%
Sademed 0.00 tolli
Lume paksus Not available.
5:33 AM 9:03 PM
Poolkuu (viimane veerand), 1% visible
METAR EETN 252150Z 28008KT 6000 OVC003 01/01 Q0997 TEMPO 3000 BR

Get Severe Weather Alerts

Thanks for signing up!

Be on the lookout for a verification email in your inbox.

You'll start receiving the daily forecast at 8 AM.

×

10-Day Weather Forecast

×

Almanac

Astronoomia

Apr. 26, 2017 Tõus Loojang
Tegelik aeg
Tsiviilne hämarik
Nautiline hämarik
Astronoomiline hämarik
Kuu
Nähtava valguse kestus
Päeva pikkus
Tomorrow will be .
, % of the Moon is Illuminated

Tänased ekstreemumid

Country Highs Country Lows

Community

WunderPhotos

WunderBlog® & News

Nearby

Õhukvaliteet

  Õhukvaliteet ÕK indeks Reostaja
Not available.

Lume paksus

Station Depth Kõrgus

Maavärinate aktiivsus

Linn Distance Mag. Time & Date
Minimum magnitude displayed is 2.5.

Coastal Water Temperatures

Koht Temperatuur

Stations

Nearby Weather Stations

Jaama asukoht Temp. Tuulekülm Kastepunkt Õhuniiskus Tuul Precip. Elev Uuendatud Tüüp